createdAt,value
2022-11-09T00:01:19.433Z,1.20
2022-11-09T00:03:46.486Z,1.00
2022-11-09T00:06:13.326Z,1.33
2022-11-09T00:08:40.650Z,1.10
2022-11-09T00:11:10.502Z,1.20
2022-11-09T00:13:38.198Z,1.20
2022-11-09T00:16:05.680Z,1.20
2022-11-09T00:18:32.272Z,1.10
2022-11-09T00:20:58.874Z,1.30
2022-11-09T00:23:25.452Z,1.20
2022-11-09T00:25:52.038Z,1.00
2022-11-09T00:28:18.663Z,1.10
2022-11-09T00:30:47.150Z,1.33
2022-11-09T00:33:13.716Z,1.50
2022-11-09T00:35:43.244Z,1.20
2022-11-09T00:38:09.850Z,1.10
2022-11-09T00:40:38.229Z,1.23
2022-11-09T00:43:04.911Z,1.23
2022-11-09T00:45:31.462Z,1.10
2022-11-09T00:47:58.005Z,1.50
2022-11-09T00:50:24.568Z,1.30
2022-11-09T00:52:51.247Z,1.27
2022-11-09T00:55:17.949Z,1.30
2022-11-09T00:57:44.535Z,1.10
2022-11-09T01:00:11.416Z,1.23
2022-11-09T01:02:38.034Z,1.10
2022-11-09T01:05:04.846Z,1.17
2022-11-09T01:07:31.392Z,1.50
2022-11-09T01:09:57.932Z,1.20
2022-11-09T01:12:24.539Z,1.13
2022-11-09T01:14:51.362Z,1.20
2022-11-09T01:17:17.980Z,0.97
2022-11-09T01:19:46.754Z,1.47
2022-11-09T01:22:14.653Z,1.37
2022-11-09T01:24:41.207Z,1.40
2022-11-09T01:27:08.046Z,1.90
2022-11-09T01:29:36.383Z,1.13
2022-11-09T01:32:03.334Z,1.17
2022-11-09T01:34:31.652Z,1.10
2022-11-09T01:37:00.868Z,1.17
2022-11-09T01:39:29.211Z,1.20
2022-11-09T01:41:55.793Z,1.20
2022-11-09T01:44:22.459Z,1.20
2022-11-09T01:46:57.060Z,1.50
2022-11-09T01:49:43.923Z,1.40
2022-11-09T01:52:12.943Z,1.20
2022-11-09T01:54:43.576Z,1.10
2022-11-09T01:57:12.090Z,1.40
2022-11-09T01:59:41.213Z,1.70
2022-11-09T02:02:08.023Z,1.57
2022-11-09T02:04:40.860Z,1.50
2022-11-09T02:07:10.844Z,1.47
2022-11-09T02:09:41.064Z,1.53
2022-11-09T02:12:08.200Z,1.33
2022-11-09T02:14:35.804Z,1.70
2022-11-09T02:17:02.467Z,1.60
2022-11-09T02:19:29.954Z,1.30
2022-11-09T02:21:56.795Z,1.30
2022-11-09T02:24:24.807Z,1.20
2022-11-09T02:26:52.339Z,1.80
2022-11-09T02:29:24.105Z,1.20
2022-11-09T02:31:53.567Z,1.37
2022-11-09T02:34:21.074Z,2.00
2022-11-09T02:36:48.135Z,1.53
2022-11-09T02:39:23.256Z,1.33
2022-11-09T02:41:57.209Z,1.33
2022-11-09T02:44:28.519Z,1.27
2022-11-09T02:46:55.571Z,1.50
2022-11-09T02:49:25.197Z,1.17
2022-11-09T02:51:52.323Z,1.33
2022-11-09T02:54:18.925Z,1.77
2022-11-09T02:56:45.507Z,1.70
2022-11-09T02:59:12.177Z,1.43
2022-11-09T03:01:40.234Z,1.50
2022-11-09T03:04:06.969Z,2.13
2022-11-09T03:06:35.740Z,1.60
2022-11-09T03:09:11.971Z,1.47
2022-11-09T03:11:41.001Z,1.33
2022-11-09T03:14:12.359Z,1.57
2022-11-09T03:16:50.221Z,1.70
2022-11-09T03:19:17.859Z,1.50
2022-11-09T03:21:46.374Z,1.70
2022-11-09T03:24:13.031Z,1.20
2022-11-09T03:26:40.781Z,1.23
2022-11-09T03:29:07.462Z,1.93
2022-11-09T03:31:35.237Z,1.40
2022-11-09T03:34:05.315Z,1.40
2022-11-09T03:36:35.243Z,1.47
2022-11-09T03:39:22.287Z,1.70
2022-11-09T03:41:48.966Z,1.40
2022-11-09T03:44:15.679Z,1.50
2022-11-09T03:46:42.243Z,1.30
2022-11-09T03:49:08.831Z,1.30
2022-11-09T03:51:35.507Z,1.70
2022-11-09T03:54:02.110Z,1.50
2022-11-09T03:56:28.704Z,1.50
2022-11-09T03:58:55.336Z,1.60
2022-11-09T04:01:22.103Z,2.10
2022-11-09T04:03:48.820Z,1.83
2022-11-09T04:06:15.386Z,1.70
2022-11-09T04:08:45.742Z,1.80
2022-11-09T04:11:21.656Z,1.50
2022-11-09T04:13:48.316Z,1.73
2022-11-09T04:16:14.909Z,1.37
2022-11-09T04:18:41.630Z,1.50
2022-11-09T04:21:08.352Z,1.77
2022-11-09T04:23:35.084Z,1.50
2022-11-09T04:26:01.750Z,1.60
2022-11-09T04:28:28.365Z,1.60
2022-11-09T04:30:54.963Z,1.67
2022-11-09T04:33:21.867Z,1.50
2022-11-09T04:35:48.845Z,1.53
2022-11-09T04:38:15.482Z,1.77
2022-11-09T04:40:42.290Z,1.43
2022-11-09T04:43:11.551Z,1.53
2022-11-09T04:45:38.150Z,1.37
2022-11-09T04:48:05.762Z,1.20
2022-11-09T04:50:32.783Z,1.50
2022-11-09T04:53:09.339Z,1.73
2022-11-09T04:55:36.010Z,1.50
2022-11-09T04:58:02.759Z,1.40
2022-11-09T05:00:29.330Z,1.67
2022-11-09T05:02:58.804Z,1.43
2022-11-09T05:05:25.448Z,1.43
2022-11-09T05:07:52.007Z,1.43
2022-11-09T05:10:18.626Z,1.97
2022-11-09T05:12:46.118Z,1.83
2022-11-09T05:15:12.951Z,1.90
2022-11-09T05:17:39.581Z,1.33
2022-11-09T05:20:06.457Z,1.60
2022-11-09T05:22:51.816Z,1.87
2022-11-09T05:25:18.374Z,1.90
2022-11-09T05:27:44.952Z,1.33
2022-11-09T05:30:11.775Z,1.40
2022-11-09T05:32:39.370Z,1.33
2022-11-09T05:35:06.238Z,1.67
2022-11-09T05:37:32.825Z,1.30
2022-11-09T05:39:59.444Z,2.20
2022-11-09T05:42:26.104Z,2.03
2022-11-09T05:44:52.657Z,2.80
2022-11-09T05:47:20.257Z,2.00
2022-11-09T05:49:46.911Z,2.83
2022-11-09T05:52:13.636Z,2.90
2022-11-09T05:54:40.258Z,1.73
2022-11-09T05:57:06.947Z,1.40
2022-11-09T05:59:33.551Z,1.30
2022-11-09T06:02:00.151Z,1.33
2022-11-09T06:04:27.031Z,1.27
2022-11-09T06:06:53.625Z,1.10
2022-11-09T06:09:20.252Z,1.20
2022-11-09T06:11:46.840Z,1.67
2022-11-09T06:14:13.466Z,1.40
2022-11-09T06:16:40.067Z,1.13
2022-11-09T06:19:06.644Z,1.30
2022-11-09T06:21:33.374Z,1.30
2022-11-09T06:24:00.190Z,1.37
2022-11-09T06:26:26.764Z,1.40
2022-11-09T06:28:53.314Z,1.43
2022-11-09T06:31:20.733Z,2.17
2022-11-09T06:33:47.351Z,2.03
2022-11-09T06:36:21.221Z,2.50
2022-11-09T06:38:51.320Z,3.27
2022-11-09T06:41:18.298Z,2.13
2022-11-09T06:43:45.016Z,1.63
2022-11-09T06:46:12.176Z,1.90
2022-11-09T06:48:39.106Z,1.77
2022-11-09T06:51:06.483Z,1.50
2022-11-09T06:53:33.598Z,1.33
2022-11-09T06:56:03.615Z,1.80
2022-11-09T06:58:30.389Z,1.50
2022-11-09T07:00:57.092Z,2.13
2022-11-09T07:03:24.402Z,2.10
2022-11-09T07:05:52.284Z,1.73
2022-11-09T07:08:19.349Z,1.63
2022-11-09T07:10:45.954Z,1.60
2022-11-09T07:13:12.779Z,1.67
2022-11-09T07:15:39.439Z,2.07
2022-11-09T07:18:26.293Z,2.80
2022-11-09T07:20:53.201Z,2.47
2022-11-09T07:23:20.022Z,2.60
2022-11-09T07:25:46.862Z,1.97
2022-11-09T07:28:13.663Z,2.47
2022-11-09T07:30:40.365Z,2.20
2022-11-09T07:33:14.661Z,2.07
2022-11-09T07:35:41.450Z,1.97
2022-11-09T07:38:08.108Z,2.30
2022-11-09T07:40:34.946Z,3.17
2022-11-09T07:43:02.302Z,3.60
2022-11-09T07:45:29.404Z,1.87
2022-11-09T07:47:56.902Z,2.00
2022-11-09T07:50:23.623Z,2.00
2022-11-09T07:52:50.265Z,1.90
2022-11-09T07:55:17.792Z,2.00
2022-11-09T07:57:44.630Z,1.93
2022-11-09T08:00:11.360Z,1.57
2022-11-09T08:02:40.941Z,1.60
2022-11-09T08:05:07.648Z,1.50
2022-11-09T08:07:34.503Z,1.60
2022-11-09T08:10:01.076Z,1.43
2022-11-09T08:12:27.828Z,1.40
2022-11-09T08:14:56.186Z,1.70
2022-11-09T08:17:22.766Z,1.60
2022-11-09T08:19:49.523Z,1.40
2022-11-09T08:22:16.110Z,1.13
2022-11-09T08:24:42.709Z,1.40
2022-11-09T08:27:09.328Z,1.30
2022-11-09T08:29:35.974Z,1.50
2022-11-09T08:32:02.559Z,1.63
2022-11-09T08:34:29.123Z,1.40
2022-11-09T08:36:55.708Z,1.50
2022-11-09T08:39:23.682Z,1.47
2022-11-09T08:41:50.303Z,1.10
2022-11-09T08:44:16.958Z,1.10
2022-11-09T08:46:43.585Z,1.27
2022-11-09T08:49:10.295Z,1.33
2022-11-09T08:51:36.916Z,1.37
2022-11-09T08:54:03.671Z,1.30
2022-11-09T08:56:30.262Z,1.80
2022-11-09T08:58:56.862Z,1.30
2022-11-09T09:01:25.324Z,1.43
2022-11-09T09:03:52.019Z,1.40
2022-11-09T09:06:18.583Z,1.00
2022-11-09T09:08:45.282Z,1.30
2022-11-09T09:11:11.926Z,1.40
2022-11-09T09:13:43.114Z,1.20
2022-11-09T09:16:10.931Z,1.20
2022-11-09T09:18:37.686Z,1.50
2022-11-09T09:21:08.159Z,1.20
2022-11-09T09:23:34.782Z,1.30
2022-11-09T09:26:15.040Z,1.30
2022-11-09T09:28:41.589Z,1.30
2022-11-09T09:31:08.380Z,1.50
2022-11-09T09:33:35.041Z,1.30
2022-11-09T09:36:01.603Z,1.27
2022-11-09T09:38:29.260Z,1.60
2022-11-09T09:41:00.110Z,1.50
2022-11-09T09:43:43.997Z,1.20
2022-11-09T09:46:25.340Z,1.57
2022-11-09T09:48:55.302Z,1.30
2022-11-09T09:51:32.437Z,1.20
2022-11-09T09:54:12.934Z,1.40
2022-11-09T09:56:40.498Z,1.40
2022-11-09T09:59:10.225Z,1.57
2022-11-09T10:01:37.895Z,1.37
2022-11-09T10:04:09.702Z,1.50
2022-11-09T10:06:37.760Z,1.47
2022-11-09T10:09:10.752Z,1.27
2022-11-09T10:11:43.417Z,1.80
2022-11-09T10:14:13.328Z,1.13
2022-11-09T10:16:44.204Z,0.93
2022-11-09T10:19:10.882Z,1.30
2022-11-09T10:21:37.484Z,1.20
2022-11-09T10:24:12.959Z,1.47
2022-11-09T10:26:42.116Z,1.43
2022-11-09T10:29:17.395Z,1.80
2022-11-09T10:31:45.845Z,1.50
2022-11-09T10:34:18.531Z,1.70
2022-11-09T10:36:47.866Z,1.50
2022-11-09T10:39:15.497Z,2.33
2022-11-09T10:42:00.788Z,1.40
2022-11-09T10:44:46.076Z,1.93
2022-11-09T10:47:31.342Z,2.20
2022-11-09T10:50:16.463Z,1.67
2022-11-09T10:53:27.838Z,1.73
2022-11-09T10:57:05.649Z,1.40
2022-11-09T10:59:56.295Z,2.07
2022-11-09T11:02:43.271Z,1.93
2022-11-09T11:05:29.653Z,2.30
2022-11-09T11:08:22.317Z,2.00
2022-11-09T11:11:32.087Z,2.20
2022-11-09T11:14:23.423Z,2.10
2022-11-09T11:17:28.059Z,1.70
2022-11-09T11:20:26.468Z,1.97
2022-11-09T11:23:17.544Z,2.57
2022-11-09T11:26:21.370Z,1.40
2022-11-09T11:29:12.860Z,1.33
2022-11-09T11:31:57.926Z,1.40
2022-11-09T11:34:59.778Z,1.40
2022-11-09T11:38:12.105Z,1.60
2022-11-09T11:41:02.966Z,1.33
2022-11-09T11:44:03.319Z,1.97
2022-11-09T11:46:57.523Z,1.20
2022-11-09T11:49:45.391Z,1.63
2022-11-09T11:52:30.258Z,1.70
2022-11-09T11:55:34.148Z,1.73
2022-11-09T11:58:27.366Z,1.33
2022-11-09T12:01:17.537Z,1.23
2022-11-09T12:04:03.046Z,1.70
2022-11-09T12:07:11.217Z,1.40
2022-11-09T12:10:08.586Z,1.93
2022-11-09T12:13:13.941Z,1.63
2022-11-09T12:16:01.982Z,1.80
2022-11-09T12:19:00.774Z,1.60
2022-11-09T12:21:46.015Z,1.30
2022-11-09T12:24:43.705Z,1.80
2022-11-09T12:27:40.004Z,1.10
2022-11-09T12:30:28.244Z,1.37
2022-11-09T12:33:19.414Z,1.30
2022-11-09T12:36:28.069Z,1.60
2022-11-09T12:39:45.804Z,1.43
2022-11-09T12:42:39.238Z,1.50
2022-11-09T12:45:32.966Z,1.70
2022-11-09T12:48:18.355Z,1.13
2022-11-09T12:51:04.673Z,1.43
2022-11-09T12:53:49.635Z,1.37
2022-11-09T12:56:37.091Z,1.53
2022-11-09T12:59:22.667Z,1.27
2022-11-09T13:02:19.135Z,1.67
2022-11-09T13:05:05.879Z,1.60
2022-11-09T13:07:53.038Z,1.37
2022-11-09T13:10:39.082Z,1.20
2022-11-09T13:13:25.071Z,1.40
2022-11-09T13:16:12.471Z,1.30
2022-11-09T13:18:58.356Z,1.43
2022-11-09T13:21:43.641Z,2.13
2022-11-09T13:24:31.946Z,1.50
2022-11-09T13:27:35.866Z,1.50
2022-11-09T13:30:28.519Z,1.30
2022-11-09T13:33:19.047Z,1.63
2022-11-09T13:36:07.994Z,1.40
2022-11-09T13:39:11.946Z,1.50
2022-11-09T13:41:57.265Z,1.43
2022-11-09T13:44:45.820Z,1.43
2022-11-09T13:47:34.620Z,1.83
2022-11-09T13:50:23.756Z,1.30
2022-11-09T13:53:27.233Z,1.40
2022-11-09T13:56:18.023Z,1.63
2022-11-09T13:59:06.021Z,1.50
2022-11-09T14:01:55.642Z,1.60
2022-11-09T14:04:43.903Z,1.30
2022-11-09T14:07:38.462Z,1.60
2022-11-09T14:10:30.457Z,1.40
2022-11-09T14:13:31.688Z,0.90
2022-11-09T14:16:30.335Z,1.57
2022-11-09T14:19:21.687Z,1.20
2022-11-09T14:22:17.275Z,1.27
2022-11-09T14:25:22.392Z,2.07
2022-11-09T14:28:20.127Z,4.17
2022-11-09T14:31:06.168Z,2.10
2022-11-09T14:33:58.883Z,1.83
2022-11-09T14:36:44.576Z,1.50
2022-11-09T14:39:34.325Z,2.43
2022-11-09T14:42:21.572Z,2.87
2022-11-09T14:45:13.599Z,3.40
2022-11-09T14:47:59.616Z,1.83
2022-11-09T14:50:45.008Z,1.70
2022-11-09T14:53:32.392Z,1.50
2022-11-09T14:56:19.349Z,1.47
2022-11-09T14:59:05.964Z,1.40
2022-11-09T15:02:17.025Z,1.27
2022-11-09T15:05:04.253Z,2.13
2022-11-09T15:07:49.369Z,2.83
2022-11-09T15:10:35.060Z,1.17
2022-11-09T15:13:28.393Z,1.60
2022-11-09T15:16:25.141Z,1.50
2022-11-09T15:19:31.004Z,1.70
2022-11-09T15:22:34.984Z,1.57
2022-11-09T15:25:24.917Z,1.33
2022-11-09T15:28:10.588Z,1.60
2022-11-09T15:30:55.852Z,1.57
2022-11-09T15:33:49.101Z,1.27
2022-11-09T15:36:35.720Z,1.23
2022-11-09T15:39:22.285Z,1.63
2022-11-09T15:42:10.195Z,1.40
2022-11-09T15:44:57.289Z,1.53
2022-11-09T15:47:49.277Z,1.33
2022-11-09T15:50:34.676Z,1.40
2022-11-09T15:53:20.253Z,1.90
2022-11-09T15:56:06.084Z,1.70
2022-11-09T15:58:52.702Z,1.70
2022-11-09T16:01:40.073Z,1.60
2022-11-09T16:04:25.335Z,1.50
2022-11-09T16:07:30.595Z,1.60
2022-11-09T16:10:16.049Z,1.60
2022-11-09T16:13:01.020Z,1.80
2022-11-09T16:15:49.377Z,1.93
2022-11-09T16:18:34.591Z,1.70
2022-11-09T16:21:19.963Z,1.70
2022-11-09T16:24:04.953Z,1.47
2022-11-09T16:26:50.378Z,2.07
2022-11-09T16:29:35.458Z,2.07
2022-11-09T16:32:20.618Z,2.00
2022-11-09T16:35:26.205Z,1.80
2022-11-09T16:38:11.523Z,1.47
2022-11-09T16:40:56.610Z,1.77
2022-11-09T16:43:42.995Z,1.60
2022-11-09T16:46:28.964Z,1.53
2022-11-09T16:49:14.304Z,1.60
2022-11-09T16:52:00.714Z,1.57
2022-11-09T16:54:46.020Z,1.80
2022-11-09T16:57:31.109Z,1.90
2022-11-09T17:00:16.889Z,2.00
2022-11-09T17:03:03.618Z,2.30
2022-11-09T17:05:48.981Z,1.40
2022-11-09T17:08:34.032Z,2.07
2022-11-09T17:11:20.102Z,2.17
2022-11-09T17:14:05.316Z,1.70
2022-11-09T17:16:50.622Z,2.00
2022-11-09T17:19:54.862Z,1.47
2022-11-09T17:22:44.796Z,1.80
2022-11-09T17:25:31.277Z,2.03
2022-11-09T17:28:16.346Z,2.00
2022-11-09T17:31:06.579Z,2.00
2022-11-09T17:33:53.201Z,2.57
2022-11-09T17:37:02.974Z,2.00
2022-11-09T17:39:45.076Z,2.30
2022-11-09T17:42:30.242Z,2.07
2022-11-09T17:45:36.765Z,2.43
2022-11-09T17:48:22.307Z,2.07
2022-11-09T17:51:08.588Z,2.07
2022-11-09T17:53:54.284Z,2.90
2022-11-09T17:56:39.901Z,2.10
2022-11-09T17:59:25.207Z,1.50
2022-11-09T18:02:10.803Z,2.20
2022-11-09T18:04:55.797Z,2.20
2022-11-09T18:07:41.243Z,3.93
2022-11-09T18:10:26.349Z,3.37
2022-11-09T18:13:11.919Z,4.97
2022-11-09T18:15:56.977Z,3.30
2022-11-09T18:18:42.445Z,5.93
2022-11-09T18:21:28.668Z,3.60
2022-11-09T18:24:14.151Z,2.67
2022-11-09T18:27:31.791Z,2.27
2022-11-09T18:30:17.127Z,2.30
2022-11-09T18:33:02.249Z,3.43
2022-11-09T18:35:55.622Z,3.30
2022-11-09T18:38:40.958Z,2.13
2022-11-09T18:41:26.136Z,2.20
2022-11-09T18:44:11.107Z,2.57
2022-11-09T18:46:59.470Z,1.97
2022-11-09T18:49:47.544Z,2.80
2022-11-09T18:52:33.925Z,3.07
2022-11-09T18:55:19.092Z,2.37
2022-11-09T18:58:04.127Z,1.77
2022-11-09T19:00:56.931Z,1.90
2022-11-09T19:03:42.656Z,2.43
2022-11-09T19:06:28.365Z,2.00
2022-11-09T19:09:30.046Z,1.90
2022-11-09T19:12:15.417Z,2.10
2022-11-09T19:15:00.567Z,1.93
2022-11-09T19:17:45.755Z,2.43
2022-11-09T19:20:31.386Z,1.50
2022-11-09T19:23:16.377Z,2.47
2022-11-09T19:26:02.143Z,2.13
2022-11-09T19:28:47.516Z,1.90
2022-11-09T19:31:32.540Z,2.03
2022-11-09T19:34:19.359Z,1.83
2022-11-09T19:37:04.594Z,2.77
2022-11-09T19:39:49.968Z,2.30
2022-11-09T19:42:35.180Z,2.10
2022-11-09T19:45:20.441Z,2.10
2022-11-09T19:48:05.692Z,2.30
2022-11-09T19:50:51.692Z,1.67
2022-11-09T19:53:42.149Z,2.10
2022-11-09T19:56:29.804Z,2.10
2022-11-09T19:59:15.811Z,1.73
2022-11-09T20:02:01.132Z,1.93
2022-11-09T20:04:47.604Z,1.83
2022-11-09T20:07:32.772Z,2.27
2022-11-09T20:10:17.810Z,2.03
2022-11-09T20:13:03.088Z,1.80
2022-11-09T20:15:48.398Z,2.30
2022-11-09T20:18:37.095Z,2.03
2022-11-09T20:21:22.511Z,2.47
2022-11-09T20:24:07.943Z,2.10
2022-11-09T20:26:53.086Z,2.07
2022-11-09T20:29:38.338Z,2.00
2022-11-09T20:32:23.791Z,2.30
2022-11-09T20:35:09.732Z,2.13
2022-11-09T20:37:55.172Z,2.00
2022-11-09T20:40:40.468Z,2.20
2022-11-09T20:43:31.988Z,3.00
2022-11-09T20:46:21.224Z,2.20
2022-11-09T20:49:06.324Z,2.27
2022-11-09T20:52:14.779Z,2.80
2022-11-09T20:54:59.892Z,2.13
2022-11-09T20:57:44.983Z,2.60
2022-11-09T21:00:31.094Z,2.27
2022-11-09T21:03:16.188Z,3.77
2022-11-09T21:06:02.348Z,3.00
2022-11-09T21:08:49.994Z,2.10
2022-11-09T21:11:34.929Z,1.90
2022-11-09T21:14:20.190Z,2.23
2022-11-09T21:17:05.314Z,1.90
2022-11-09T21:19:52.879Z,2.00
2022-11-09T21:22:56.643Z,1.67
2022-11-09T21:26:01.565Z,1.80
2022-11-09T21:29:05.483Z,2.07
2022-11-09T21:31:50.732Z,2.10
2022-11-09T21:34:37.398Z,2.37
2022-11-09T21:37:22.842Z,2.00
2022-11-09T21:40:08.447Z,1.80
2022-11-09T21:42:55.039Z,2.70
2022-11-09T21:45:41.195Z,2.00
2022-11-09T21:48:26.124Z,2.60
2022-11-09T21:51:11.616Z,2.97
2022-11-09T21:53:56.992Z,2.53
2022-11-09T21:56:42.258Z,2.53
2022-11-09T21:59:27.498Z,2.00
2022-11-09T22:02:12.906Z,2.60
2022-11-09T22:04:57.971Z,2.03
2022-11-09T22:07:43.326Z,2.30
2022-11-09T22:10:28.818Z,2.07
2022-11-09T22:13:33.674Z,1.93
2022-11-09T22:16:19.619Z,2.30
2022-11-09T22:19:23.253Z,2.10
2022-11-09T22:22:08.465Z,2.13
2022-11-09T22:24:53.660Z,1.97
2022-11-09T22:27:39.147Z,2.10
2022-11-09T22:30:24.324Z,2.50
2022-11-09T22:33:09.513Z,2.20
2022-11-09T22:35:58.570Z,2.30
2022-11-09T22:38:43.702Z,2.23
2022-11-09T22:41:49.238Z,1.97
2022-11-09T22:44:35.322Z,2.20
2022-11-09T22:47:20.415Z,2.47
2022-11-09T22:50:05.873Z,2.27
2022-11-09T22:52:54.047Z,2.00
2022-11-09T22:55:39.435Z,2.30
2022-11-09T22:58:25.173Z,2.20
2022-11-09T23:01:17.197Z,2.30
2022-11-09T23:04:02.459Z,2.50
2022-11-09T23:06:49.033Z,2.27
2022-11-09T23:09:34.614Z,2.40
2022-11-09T23:12:19.791Z,2.00
2022-11-09T23:15:05.386Z,2.57
2022-11-09T23:18:10.768Z,1.50
2022-11-09T23:21:05.116Z,1.90
2022-11-09T23:23:55.455Z,1.90
2022-11-09T23:26:40.291Z,2.50
2022-11-09T23:29:25.608Z,1.60
2022-11-09T23:32:10.933Z,1.90
2022-11-09T23:34:56.292Z,2.37
2022-11-09T23:37:41.513Z,1.90
2022-11-09T23:40:27.071Z,2.43
2022-11-09T23:43:12.875Z,2.07
2022-11-09T23:46:01.762Z,2.17
2022-11-09T23:48:46.549Z,1.93
2022-11-09T23:51:31.546Z,1.63
2022-11-09T23:54:16.736Z,2.07
2022-11-09T23:57:02.084Z,1.73
2022-11-09T23:59:47.326Z,1.67
